sensor_id;sensor_type;location;lat;lon;timestamp;P1;durP1;ratioP1;P2;durP2;ratioP2
64543;SDS011;50936;51.660;5.616;2022-10-12T00:00:20;19.48;;;9.73;;
64543;SDS011;50936;51.660;5.616;2022-10-12T00:02:56;19.13;;;9.00;;
64543;SDS011;50936;51.660;5.616;2022-10-12T00:05:43;18.50;;;9.45;;
64543;SDS011;50936;51.660;5.616;2022-10-12T00:08:31;19.58;;;9.77;;
64543;SDS011;50936;51.660;5.616;2022-10-12T00:11:21;23.10;;;10.30;;
64543;SDS011;50936;51.660;5.616;2022-10-12T00:16:38;18.42;;;8.88;;
64543;SDS011;50936;51.660;5.616;2022-10-12T00:19:06;19.67;;;8.95;;
64543;SDS011;50936;51.660;5.616;2022-10-12T00:21:32;16.98;;;9.00;;
64543;SDS011;50936;51.660;5.616;2022-10-12T00:23:59;18.98;;;8.75;;
64543;SDS011;50936;51.660;5.616;2022-10-12T00:26:27;16.80;;;7.25;;
64543;SDS011;50936;51.660;5.616;2022-10-12T00:28:58;19.25;;;7.88;;
64543;SDS011;50936;51.660;5.616;2022-10-12T00:33:58;17.63;;;7.32;;
64543;SDS011;50936;51.660;5.616;2022-10-12T00:36:28;17.90;;;6.95;;
64543;SDS011;50936;51.660;5.616;2022-10-12T00:38:59;19.23;;;8.02;;
64543;SDS011;50936;51.660;5.616;2022-10-12T00:41:29;18.05;;;7.15;;
64543;SDS011;50936;51.660;5.616;2022-10-12T00:43:59;18.08;;;7.47;;
64543;SDS011;50936;51.660;5.616;2022-10-12T00:46:36;18.20;;;8.02;;
64543;SDS011;50936;51.660;5.616;2022-10-12T00:49:17;14.75;;;7.30;;
64543;SDS011;50936;51.660;5.616;2022-10-12T00:51:52;14.68;;;7.85;;
64543;SDS011;50936;51.660;5.616;2022-10-12T00:54:27;18.27;;;8.10;;
64543;SDS011;50936;51.660;5.616;2022-10-12T00:57:00;18.80;;;7.88;;
64543;SDS011;50936;51.660;5.616;2022-10-12T00:59:31;19.27;;;7.88;;
64543;SDS011;50936;51.660;5.616;2022-10-12T01:02:05;14.82;;;8.05;;
64543;SDS011;50936;51.660;5.616;2022-10-12T01:04:52;19.77;;;8.25;;
64543;SDS011;50936;51.660;5.616;2022-10-12T01:07:39;15.23;;;7.07;;
64543;SDS011;50936;51.660;5.616;2022-10-12T01:10:06;15.52;;;7.18;;
64543;SDS011;50936;51.660;5.616;2022-10-12T01:12:34;13.27;;;7.25;;
64543;SDS011;50936;51.660;5.616;2022-10-12T01:15:04;18.17;;;8.52;;
64543;SDS011;50936;51.660;5.616;2022-10-12T01:20:44;14.05;;;7.70;;
64543;SDS011;50936;51.660;5.616;2022-10-12T01:29:27;18.45;;;7.80;;
64543;SDS011;50936;51.660;5.616;2022-10-12T01:32:15;19.85;;;8.07;;
64543;SDS011;50936;51.660;5.616;2022-10-12T01:35:07;17.17;;;8.75;;
64543;SDS011;50936;51.660;5.616;2022-10-12T01:43:48;13.10;;;7.70;;
64543;SDS011;50936;51.660;5.616;2022-10-12T01:48:44;15.55;;;8.00;;
64543;SDS011;50936;51.660;5.616;2022-10-12T01:52:01;16.65;;;8.18;;
64543;SDS011;50936;51.660;5.616;2022-10-12T02:00:20;15.68;;;8.68;;
64543;SDS011;50936;51.660;5.616;2022-10-12T02:08:23;22.00;;;10.10;;
64543;SDS011;50936;51.660;5.616;2022-10-12T02:11:10;14.90;;;7.63;;
64543;SDS011;50936;51.660;5.616;2022-10-12T02:13:44;16.85;;;8.45;;
64543;SDS011;50936;51.660;5.616;2022-10-12T02:16:19;15.43;;;8.40;;
64543;SDS011;50936;51.660;5.616;2022-10-12T02:18:51;15.32;;;7.75;;
64543;SDS011;50936;51.660;5.616;2022-10-12T02:21:24;19.65;;;9.30;;
64543;SDS011;50936;51.660;5.616;2022-10-12T02:23:58;19.15;;;9.05;;
64543;SDS011;50936;51.660;5.616;2022-10-12T02:26:32;20.60;;;9.05;;
64543;SDS011;50936;51.660;5.616;2022-10-12T02:29:04;16.67;;;8.95;;
64543;SDS011;50936;51.660;5.616;2022-10-12T02:32:42;18.50;;;9.00;;
64543;SDS011;50936;51.660;5.616;2022-10-12T02:37:38;21.42;;;8.60;;
64543;SDS011;50936;51.660;5.616;2022-10-12T02:40:18;18.13;;;9.20;;
64543;SDS011;50936;51.660;5.616;2022-10-12T02:43:16;21.55;;;9.00;;
64543;SDS011;50936;51.660;5.616;2022-10-12T02:48:19;16.52;;;8.35;;
64543;SDS011;50936;51.660;5.616;2022-10-12T02:50:50;20.63;;;8.50;;
64543;SDS011;50936;51.660;5.616;2022-10-12T02:53:23;16.48;;;8.52;;
64543;SDS011;50936;51.660;5.616;2022-10-12T02:55:54;23.20;;;9.43;;
64543;SDS011;50936;51.660;5.616;2022-10-12T02:58:29;27.98;;;9.75;;
64543;SDS011;50936;51.660;5.616;2022-10-12T03:00:56;18.40;;;9.20;;
64543;SDS011;50936;51.660;5.616;2022-10-12T03:03:23;15.63;;;8.38;;
64543;SDS011;50936;51.660;5.616;2022-10-12T03:05:51;21.95;;;9.30;;
64543;SDS011;50936;51.660;5.616;2022-10-12T03:08:18;18.42;;;8.43;;
64543;SDS011;50936;51.660;5.616;2022-10-12T03:10:45;22.38;;;9.63;;
64543;SDS011;50936;51.660;5.616;2022-10-12T03:13:12;25.23;;;10.07;;
64543;SDS011;50936;51.660;5.616;2022-10-12T03:15:39;22.23;;;9.63;;
64543;SDS011;50936;51.660;5.616;2022-10-12T03:18:06;17.80;;;9.52;;
64543;SDS011;50936;51.660;5.616;2022-10-12T03:20:33;22.42;;;9.50;;
64543;SDS011;50936;51.660;5.616;2022-10-12T03:23:00;21.25;;;8.77;;
64543;SDS011;50936;51.660;5.616;2022-10-12T03:25:27;26.80;;;9.73;;
64543;SDS011;50936;51.660;5.616;2022-10-12T03:27:54;18.67;;;9.20;;
64543;SDS011;50936;51.660;5.616;2022-10-12T03:30:21;20.48;;;9.40;;
64543;SDS011;50936;51.660;5.616;2022-10-12T03:32:48;16.50;;;9.20;;
64543;SDS011;50936;51.660;5.616;2022-10-12T03:35:15;19.27;;;8.90;;
64543;SDS011;50936;51.660;5.616;2022-10-12T03:37:42;22.13;;;8.50;;
64543;SDS011;50936;51.660;5.616;2022-10-12T03:40:09;19.73;;;8.27;;
64543;SDS011;50936;51.660;5.616;2022-10-12T03:42:37;20.15;;;8.25;;
64543;SDS011;50936;51.660;5.616;2022-10-12T03:45:03;17.05;;;8.45;;
64543;SDS011;50936;51.660;5.616;2022-10-12T03:47:31;21.52;;;8.13;;
64543;SDS011;50936;51.660;5.616;2022-10-12T03:49:58;20.92;;;8.77;;
64543;SDS011;50936;51.660;5.616;2022-10-12T03:52:25;14.13;;;7.28;;
64543;SDS011;50936;51.660;5.616;2022-10-12T03:54:53;18.00;;;8.02;;
64543;SDS011;50936;51.660;5.616;2022-10-12T03:57:19;20.42;;;8.43;;
64543;SDS011;50936;51.660;5.616;2022-10-12T03:59:47;14.23;;;8.05;;
64543;SDS011;50936;51.660;5.616;2022-10-12T04:02:13;20.13;;;8.05;;
64543;SDS011;50936;51.660;5.616;2022-10-12T04:04:42;18.73;;;7.70;;
64543;SDS011;50936;51.660;5.616;2022-10-12T04:07:16;24.05;;;8.38;;
64543;SDS011;50936;51.660;5.616;2022-10-12T04:09:46;21.20;;;7.75;;
64543;SDS011;50936;51.660;5.616;2022-10-12T04:12:16;19.02;;;7.85;;
64543;SDS011;50936;51.660;5.616;2022-10-12T04:14:46;16.88;;;8.82;;
64543;SDS011;50936;51.660;5.616;2022-10-12T04:17:16;16.23;;;9.32;;
64543;SDS011;50936;51.660;5.616;2022-10-12T04:19:49;15.00;;;8.32;;
64543;SDS011;50936;51.660;5.616;2022-10-12T04:22:21;19.35;;;8.73;;
64543;SDS011;50936;51.660;5.616;2022-10-12T04:27:22;13.05;;;7.95;;
64543;SDS011;50936;51.660;5.616;2022-10-12T04:29:52;17.42;;;7.80;;
64543;SDS011;50936;51.660;5.616;2022-10-12T04:32:20;20.50;;;8.30;;
64543;SDS011;50936;51.660;5.616;2022-10-12T04:34:52;24.17;;;8.13;;
64543;SDS011;50936;51.660;5.616;2022-10-12T04:37:22;21.35;;;7.90;;
64543;SDS011;50936;51.660;5.616;2022-10-12T04:39:52;18.48;;;7.88;;
64543;SDS011;50936;51.660;5.616;2022-10-12T04:42:39;15.77;;;7.60;;
64543;SDS011;50936;51.660;5.616;2022-10-12T04:45:10;20.70;;;9.02;;
64543;SDS011;50936;51.660;5.616;2022-10-12T04:47:41;15.93;;;8.10;;
64543;SDS011;50936;51.660;5.616;2022-10-12T04:50:13;20.23;;;8.35;;
64543;SDS011;50936;51.660;5.616;2022-10-12T04:52:43;17.52;;;8.18;;
64543;SDS011;50936;51.660;5.616;2022-10-12T04:55:13;17.77;;;8.07;;
64543;SDS011;50936;51.660;5.616;2022-10-12T04:57:42;19.65;;;7.78;;
64543;SDS011;50936;51.660;5.616;2022-10-12T05:00:13;18.45;;;8.30;;
64543;SDS011;50936;51.660;5.616;2022-10-12T05:02:44;17.30;;;8.60;;
64543;SDS011;50936;51.660;5.616;2022-10-12T05:05:12;25.80;;;9.13;;
64543;SDS011;50936;51.660;5.616;2022-10-12T05:07:42;18.20;;;8.48;;
64543;SDS011;50936;51.660;5.616;2022-10-12T05:10:12;16.38;;;8.45;;
64543;SDS011;50936;51.660;5.616;2022-10-12T05:12:43;16.02;;;8.93;;
64543;SDS011;50936;51.660;5.616;2022-10-12T05:15:12;17.40;;;7.75;;
64543;SDS011;50936;51.660;5.616;2022-10-12T05:17:43;20.60;;;8.93;;
64543;SDS011;50936;51.660;5.616;2022-10-12T05:20:12;17.73;;;8.68;;
64543;SDS011;50936;51.660;5.616;2022-10-12T05:22:43;18.15;;;8.75;;
64543;SDS011;50936;51.660;5.616;2022-10-12T05:25:14;17.05;;;8.18;;
64543;SDS011;50936;51.660;5.616;2022-10-12T05:27:44;19.20;;;8.82;;
64543;SDS011;50936;51.660;5.616;2022-10-12T05:30:14;21.67;;;8.65;;
64543;SDS011;50936;51.660;5.616;2022-10-12T05:32:47;16.45;;;8.45;;
64543;SDS011;50936;51.660;5.616;2022-10-12T05:35:17;24.38;;;9.43;;
64543;SDS011;50936;51.660;5.616;2022-10-12T05:37:48;18.88;;;10.00;;
64543;SDS011;50936;51.660;5.616;2022-10-12T05:40:16;17.92;;;9.38;;
64543;SDS011;50936;51.660;5.616;2022-10-12T05:42:46;20.42;;;8.98;;
64543;SDS011;50936;51.660;5.616;2022-10-12T05:45:16;19.08;;;8.77;;
64543;SDS011;50936;51.660;5.616;2022-10-12T05:47:45;21.33;;;9.48;;
64543;SDS011;50936;51.660;5.616;2022-10-12T05:50:15;23.90;;;9.43;;
64543;SDS011;50936;51.660;5.616;2022-10-12T05:53:01;19.60;;;9.00;;
64543;SDS011;50936;51.660;5.616;2022-10-12T05:55:55;21.20;;;8.52;;
64543;SDS011;50936;51.660;5.616;2022-10-12T05:58:30;17.70;;;8.90;;
64543;SDS011;50936;51.660;5.616;2022-10-12T06:01:07;22.33;;;8.25;;
64543;SDS011;50936;51.660;5.616;2022-10-12T06:03:44;22.35;;;9.30;;
64543;SDS011;50936;51.660;5.616;2022-10-12T06:06:16;20.90;;;9.77;;
64543;SDS011;50936;51.660;5.616;2022-10-12T06:08:48;18.33;;;9.43;;
64543;SDS011;50936;51.660;5.616;2022-10-12T06:11:20;23.63;;;9.57;;
64543;SDS011;50936;51.660;5.616;2022-10-12T06:13:54;20.23;;;8.52;;
64543;SDS011;50936;51.660;5.616;2022-10-12T06:16:25;17.45;;;9.20;;
64543;SDS011;50936;51.660;5.616;2022-10-12T06:18:57;22.15;;;9.02;;
64543;SDS011;50936;51.660;5.616;2022-10-12T06:21:31;23.42;;;9.90;;
64543;SDS011;50936;51.660;5.616;2022-10-12T06:24:07;23.85;;;9.90;;
64543;SDS011;50936;51.660;5.616;2022-10-12T06:26:40;20.83;;;9.45;;
64543;SDS011;50936;51.660;5.616;2022-10-12T06:29:16;20.88;;;10.52;;
64543;SDS011;50936;51.660;5.616;2022-10-12T06:31:50;28.83;;;10.88;;
64543;SDS011;50936;51.660;5.616;2022-10-12T06:34:28;23.02;;;10.65;;
64543;SDS011;50936;51.660;5.616;2022-10-12T06:40:09;23.70;;;10.82;;
64543;SDS011;50936;51.660;5.616;2022-10-12T06:42:48;25.20;;;11.27;;
64543;SDS011;50936;51.660;5.616;2022-10-12T06:45:30;19.90;;;10.32;;
64543;SDS011;50936;51.660;5.616;2022-10-12T06:48:12;21.08;;;9.50;;
64543;SDS011;50936;51.660;5.616;2022-10-12T06:50:55;19.23;;;9.57;;
64543;SDS011;50936;51.660;5.616;2022-10-12T06:53:33;19.33;;;9.80;;
64543;SDS011;50936;51.660;5.616;2022-10-12T06:56:20;19.27;;;10.02;;
64543;SDS011;50936;51.660;5.616;2022-10-12T06:59:07;19.73;;;10.27;;
64543;SDS011;50936;51.660;5.616;2022-10-12T07:01:51;26.08;;;10.85;;
64543;SDS011;50936;51.660;5.616;2022-10-12T07:04:33;37.65;;;12.35;;
64543;SDS011;50936;51.660;5.616;2022-10-12T07:07:19;21.80;;;11.20;;
64543;SDS011;50936;51.660;5.616;2022-10-12T07:09:57;20.65;;;9.50;;
64543;SDS011;50936;51.660;5.616;2022-10-12T07:12:43;16.73;;;9.40;;
64543;SDS011;50936;51.660;5.616;2022-10-12T07:15:20;21.85;;;10.60;;
64543;SDS011;50936;51.660;5.616;2022-10-12T07:18:07;26.02;;;11.25;;
64543;SDS011;50936;51.660;5.616;2022-10-12T07:20:45;22.80;;;10.48;;
64543;SDS011;50936;51.660;5.616;2022-10-12T07:23:32;20.67;;;10.40;;
64543;SDS011;50936;51.660;5.616;2022-10-12T07:26:16;25.55;;;10.90;;
64543;SDS011;50936;51.660;5.616;2022-10-12T07:29:00;19.17;;;10.75;;
64543;SDS011;50936;51.660;5.616;2022-10-12T07:31:44;22.77;;;11.95;;
64543;SDS011;50936;51.660;5.616;2022-10-12T07:34:34;26.48;;;12.20;;
64543;SDS011;50936;51.660;5.616;2022-10-12T07:37:21;22.85;;;11.13;;
64543;SDS011;50936;51.660;5.616;2022-10-12T07:40:08;23.38;;;11.32;;
64543;SDS011;50936;51.660;5.616;2022-10-12T07:42:49;24.33;;;10.98;;
64543;SDS011;50936;51.660;5.616;2022-10-12T07:45:36;24.70;;;11.65;;
64543;SDS011;50936;51.660;5.616;2022-10-12T07:48:03;25.10;;;13.23;;
64543;SDS011;50936;51.660;5.616;2022-10-12T07:50:30;26.95;;;11.70;;
64543;SDS011;50936;51.660;5.616;2022-10-12T07:52:57;24.23;;;12.60;;
64543;SDS011;50936;51.660;5.616;2022-10-12T07:55:23;25.58;;;12.23;;
64543;SDS011;50936;51.660;5.616;2022-10-12T07:57:50;27.65;;;13.52;;
64543;SDS011;50936;51.660;5.616;2022-10-12T08:00:17;28.83;;;12.10;;
64543;SDS011;50936;51.660;5.616;2022-10-12T08:02:47;24.08;;;12.02;;
64543;SDS011;50936;51.660;5.616;2022-10-12T08:05:14;26.73;;;13.70;;
64543;SDS011;50936;51.660;5.616;2022-10-12T08:07:41;20.88;;;11.63;;
64543;SDS011;50936;51.660;5.616;2022-10-12T08:10:08;28.65;;;12.15;;
64543;SDS011;50936;51.660;5.616;2022-10-12T08:12:35;28.95;;;12.90;;
64543;SDS011;50936;51.660;5.616;2022-10-12T08:15:02;30.13;;;12.50;;
64543;SDS011;50936;51.660;5.616;2022-10-12T08:17:29;31.83;;;13.93;;
64543;SDS011;50936;51.660;5.616;2022-10-12T08:19:56;25.73;;;13.27;;
64543;SDS011;50936;51.660;5.616;2022-10-12T08:22:23;24.35;;;12.65;;
64543;SDS011;50936;51.660;5.616;2022-10-12T08:24:50;36.45;;;13.02;;
64543;SDS011;50936;51.660;5.616;2022-10-12T08:27:17;31.20;;;13.45;;
64543;SDS011;50936;51.660;5.616;2022-10-12T08:29:44;28.45;;;14.02;;
64543;SDS011;50936;51.660;5.616;2022-10-12T08:32:10;29.33;;;14.15;;
64543;SDS011;50936;51.660;5.616;2022-10-12T08:34:37;27.05;;;14.55;;
64543;SDS011;50936;51.660;5.616;2022-10-12T08:37:04;29.15;;;14.38;;
64543;SDS011;50936;51.660;5.616;2022-10-12T08:39:31;29.42;;;13.63;;
64543;SDS011;50936;51.660;5.616;2022-10-12T08:42:03;31.05;;;16.42;;
64543;SDS011;50936;51.660;5.616;2022-10-12T08:48:11;32.65;;;14.25;;
64543;SDS011;50936;51.660;5.616;2022-10-12T08:50:59;33.88;;;14.90;;
64543;SDS011;50936;51.660;5.616;2022-10-12T08:56:22;37.70;;;15.10;;
64543;SDS011;50936;51.660;5.616;2022-10-12T08:58:51;32.88;;;15.05;;
64543;SDS011;50936;51.660;5.616;2022-10-12T09:07:09;32.75;;;15.60;;
64543;SDS011;50936;51.660;5.616;2022-10-12T09:15:34;36.42;;;18.40;;
64543;SDS011;50936;51.660;5.616;2022-10-12T09:18:26;29.15;;;16.33;;
64543;SDS011;50936;51.660;5.616;2022-10-12T09:21:12;33.15;;;16.25;;
64543;SDS011;50936;51.660;5.616;2022-10-12T09:23:46;31.45;;;15.45;;
64543;SDS011;50936;51.660;5.616;2022-10-12T09:26:15;33.20;;;18.15;;
64543;SDS011;50936;51.660;5.616;2022-10-12T09:28:55;36.00;;;16.63;;
64543;SDS011;50936;51.660;5.616;2022-10-12T09:31:33;31.02;;;15.70;;
64543;SDS011;50936;51.660;5.616;2022-10-12T09:34:23;38.05;;;16.60;;
64543;SDS011;50936;51.660;5.616;2022-10-12T09:36:50;37.83;;;15.88;;
64543;SDS011;50936;51.660;5.616;2022-10-12T09:39:20;32.90;;;15.43;;
64543;SDS011;50936;51.660;5.616;2022-10-12T09:47:03;32.78;;;15.50;;
64543;SDS011;50936;51.660;5.616;2022-10-12T09:49:50;36.92;;;15.15;;
64543;SDS011;50936;51.660;5.616;2022-10-12T09:52:26;31.10;;;15.85;;
64543;SDS011;50936;51.660;5.616;2022-10-12T09:57:39;34.80;;;16.17;;
64543;SDS011;50936;51.660;5.616;2022-10-12T10:00:28;36.40;;;16.60;;
64543;SDS011;50936;51.660;5.616;2022-10-12T10:02:59;31.05;;;16.73;;
64543;SDS011;50936;51.660;5.616;2022-10-12T10:05:32;33.78;;;16.30;;
64543;SDS011;50936;51.660;5.616;2022-10-12T10:08:19;30.35;;;16.40;;
64543;SDS011;50936;51.660;5.616;2022-10-12T13:04:03;16.85;;;7.38;;
64543;SDS011;50936;51.660;5.616;2022-10-12T13:21:57;15.68;;;7.22;;
64543;SDS011;50936;51.660;5.616;2022-10-12T13:24:59;20.80;;;7.80;;
64543;SDS011;50936;51.660;5.616;2022-10-12T13:27:52;18.17;;;7.97;;
64543;SDS011;50936;51.660;5.616;2022-10-12T13:34:12;16.27;;;6.78;;
64543;SDS011;50936;51.660;5.616;2022-10-12T13:37:12;15.65;;;6.75;;
64543;SDS011;50936;51.660;5.616;2022-10-12T13:39:49;14.82;;;7.95;;
64543;SDS011;50936;51.660;5.616;2022-10-12T13:42:39;15.90;;;8.30;;
64543;SDS011;50936;51.660;5.616;2022-10-12T13:45:17;14.15;;;7.07;;
64543;SDS011;50936;51.660;5.616;2022-10-12T13:48:05;18.65;;;7.88;;
64543;SDS011;50936;51.660;5.616;2022-10-12T13:51:23;19.45;;;8.30;;
64543;SDS011;50936;51.660;5.616;2022-10-12T13:54:20;16.73;;;7.68;;
64543;SDS011;50936;51.660;5.616;2022-10-12T14:00:25;14.40;;;6.38;;
64543;SDS011;50936;51.660;5.616;2022-10-12T14:03:22;18.15;;;6.82;;
64543;SDS011;50936;51.660;5.616;2022-10-12T14:06:25;15.82;;;6.72;;
64543;SDS011;50936;51.660;5.616;2022-10-12T14:09:17;13.07;;;5.20;;
64543;SDS011;50936;51.660;5.616;2022-10-12T14:12:02;10.90;;;3.78;;
64543;SDS011;50936;51.660;5.616;2022-10-12T14:14:45;9.48;;;3.35;;
64543;SDS011;50936;51.660;5.616;2022-10-12T14:17:17;13.00;;;3.35;;
64543;SDS011;50936;51.660;5.616;2022-10-12T14:19:47;8.27;;;2.45;;
64543;SDS011;50936;51.660;5.616;2022-10-12T14:25:10;11.70;;;3.30;;
64543;SDS011;50936;51.660;5.616;2022-10-12T14:27:44;8.50;;;3.03;;
64543;SDS011;50936;51.660;5.616;2022-10-12T14:30:22;12.00;;;3.58;;
64543;SDS011;50936;51.660;5.616;2022-10-12T14:35:42;11.13;;;2.97;;
64543;SDS011;50936;51.660;5.616;2022-10-12T14:38:36;7.57;;;2.90;;
64543;SDS011;50936;51.660;5.616;2022-10-12T14:44:40;9.52;;;3.13;;
64543;SDS011;50936;51.660;5.616;2022-10-12T14:47:16;9.10;;;3.70;;
64543;SDS011;50936;51.660;5.616;2022-10-12T14:49:49;8.43;;;3.15;;
64543;SDS011;50936;51.660;5.616;2022-10-12T14:54:53;9.77;;;3.33;;
64543;SDS011;50936;51.660;5.616;2022-10-12T14:57:23;10.27;;;2.85;;
64543;SDS011;50936;51.660;5.616;2022-10-12T14:59:54;9.80;;;3.33;;
64543;SDS011;50936;51.660;5.616;2022-10-12T15:04:52;11.55;;;3.65;;
64543;SDS011;50936;51.660;5.616;2022-10-12T15:07:23;12.68;;;3.38;;
64543;SDS011;50936;51.660;5.616;2022-10-12T15:09:55;8.82;;;3.20;;
64543;SDS011;50936;51.660;5.616;2022-10-12T15:12:22;8.70;;;3.63;;
64543;SDS011;50936;51.660;5.616;2022-10-12T15:14:52;10.63;;;3.40;;
64543;SDS011;50936;51.660;5.616;2022-10-12T15:17:22;8.65;;;3.20;;
64543;SDS011;50936;51.660;5.616;2022-10-12T15:19:49;12.35;;;3.60;;
64543;SDS011;50936;51.660;5.616;2022-10-12T15:22:21;12.70;;;3.83;;
64543;SDS011;50936;51.660;5.616;2022-10-12T15:24:51;9.75;;;3.63;;
64543;SDS011;50936;51.660;5.616;2022-10-12T15:27:20;13.18;;;3.80;;
64543;SDS011;50936;51.660;5.616;2022-10-12T15:29:47;10.75;;;3.97;;
64543;SDS011;50936;51.660;5.616;2022-10-12T15:32:15;9.25;;;3.50;;
64543;SDS011;50936;51.660;5.616;2022-10-12T15:34:43;11.68;;;3.85;;
64543;SDS011;50936;51.660;5.616;2022-10-12T15:37:11;10.10;;;3.63;;
64543;SDS011;50936;51.660;5.616;2022-10-12T15:39:38;10.88;;;4.53;;
64543;SDS011;50936;51.660;5.616;2022-10-12T15:42:04;16.23;;;5.82;;
64543;SDS011;50936;51.660;5.616;2022-10-12T15:44:31;19.55;;;5.15;;
64543;SDS011;50936;51.660;5.616;2022-10-12T15:47:07;12.18;;;4.20;;
64543;SDS011;50936;51.660;5.616;2022-10-12T15:49:35;10.48;;;4.05;;
64543;SDS011;50936;51.660;5.616;2022-10-12T15:52:03;13.60;;;4.22;;
64543;SDS011;50936;51.660;5.616;2022-10-12T15:54:34;14.07;;;5.50;;
64543;SDS011;50936;51.660;5.616;2022-10-12T15:57:01;14.02;;;5.10;;
64543;SDS011;50936;51.660;5.616;2022-10-12T15:59:28;19.77;;;6.95;;
64543;SDS011;50936;51.660;5.616;2022-10-12T16:01:55;17.40;;;6.60;;
64543;SDS011;50936;51.660;5.616;2022-10-12T16:04:23;14.25;;;5.68;;
64543;SDS011;50936;51.660;5.616;2022-10-12T16:06:50;15.63;;;4.90;;
64543;SDS011;50936;51.660;5.616;2022-10-12T16:09:17;13.63;;;4.15;;
64543;SDS011;50936;51.660;5.616;2022-10-12T16:11:43;13.20;;;4.72;;
64543;SDS011;50936;51.660;5.616;2022-10-12T16:14:12;16.40;;;6.22;;
64543;SDS011;50936;51.660;5.616;2022-10-12T16:16:39;17.35;;;6.15;;
64543;SDS011;50936;51.660;5.616;2022-10-12T16:19:06;15.27;;;5.30;;
64543;SDS011;50936;51.660;5.616;2022-10-12T16:21:33;13.65;;;4.90;;
64543;SDS011;50936;51.660;5.616;2022-10-12T16:24:00;10.35;;;4.00;;
64543;SDS011;50936;51.660;5.616;2022-10-12T16:26:27;12.82;;;4.38;;
64543;SDS011;50936;51.660;5.616;2022-10-12T16:28:54;12.57;;;4.70;;
64543;SDS011;50936;51.660;5.616;2022-10-12T16:31:21;13.27;;;4.47;;
64543;SDS011;50936;51.660;5.616;2022-10-12T16:33:47;13.43;;;4.60;;
64543;SDS011;50936;51.660;5.616;2022-10-12T16:36:14;11.18;;;4.50;;
64543;SDS011;50936;51.660;5.616;2022-10-12T16:38:42;10.68;;;4.53;;
64543;SDS011;50936;51.660;5.616;2022-10-12T16:41:10;10.30;;;3.97;;
64543;SDS011;50936;51.660;5.616;2022-10-12T16:43:40;16.48;;;4.40;;
64543;SDS011;50936;51.660;5.616;2022-10-12T16:46:08;12.55;;;4.18;;
64543;SDS011;50936;51.660;5.616;2022-10-12T16:48:35;16.15;;;4.90;;
64543;SDS011;50936;51.660;5.616;2022-10-12T16:51:06;11.85;;;4.90;;
64543;SDS011;50936;51.660;5.616;2022-10-12T16:53:35;15.20;;;5.15;;
64543;SDS011;50936;51.660;5.616;2022-10-12T16:56:02;12.85;;;5.03;;
64543;SDS011;50936;51.660;5.616;2022-10-12T16:58:30;13.77;;;4.55;;
64543;SDS011;50936;51.660;5.616;2022-10-12T17:00:57;16.52;;;5.88;;
64543;SDS011;50936;51.660;5.616;2022-10-12T17:03:24;12.98;;;5.05;;
64543;SDS011;50936;51.660;5.616;2022-10-12T17:06:00;14.00;;;5.25;;
64543;SDS011;50936;51.660;5.616;2022-10-12T17:08:26;13.95;;;5.45;;
64543;SDS011;50936;51.660;5.616;2022-10-12T17:10:57;16.55;;;6.07;;
64543;SDS011;50936;51.660;5.616;2022-10-12T17:13:24;17.30;;;5.95;;
64543;SDS011;50936;51.660;5.616;2022-10-12T17:15:51;15.60;;;5.32;;
64543;SDS011;50936;51.660;5.616;2022-10-12T17:18:18;14.00;;;5.32;;
64543;SDS011;50936;51.660;5.616;2022-10-12T17:20:44;16.40;;;6.07;;
64543;SDS011;50936;51.660;5.616;2022-10-12T17:23:17;13.98;;;5.55;;
64543;SDS011;50936;51.660;5.616;2022-10-12T17:25:44;14.52;;;5.78;;
64543;SDS011;50936;51.660;5.616;2022-10-12T17:28:11;17.38;;;6.50;;
64543;SDS011;50936;51.660;5.616;2022-10-12T17:30:37;14.88;;;7.20;;
64543;SDS011;50936;51.660;5.616;2022-10-12T17:33:04;15.82;;;7.10;;
64543;SDS011;50936;51.660;5.616;2022-10-12T17:35:31;17.20;;;6.80;;
64543;SDS011;50936;51.660;5.616;2022-10-12T17:37:59;17.38;;;6.90;;
64543;SDS011;50936;51.660;5.616;2022-10-12T17:40:25;14.43;;;5.90;;
64543;SDS011;50936;51.660;5.616;2022-10-12T17:42:52;13.77;;;6.57;;
64543;SDS011;50936;51.660;5.616;2022-10-12T17:45:19;17.85;;;7.15;;
64543;SDS011;50936;51.660;5.616;2022-10-12T17:47:48;19.88;;;7.95;;
64543;SDS011;50936;51.660;5.616;2022-10-12T17:50:15;18.65;;;6.82;;
64543;SDS011;50936;51.660;5.616;2022-10-12T17:52:42;18.27;;;7.88;;
64543;SDS011;50936;51.660;5.616;2022-10-12T17:55:09;19.38;;;9.13;;
64543;SDS011;50936;51.660;5.616;2022-10-12T17:57:56;24.48;;;9.70;;
64543;SDS011;50936;51.660;5.616;2022-10-12T18:00:22;25.17;;;9.10;;
64543;SDS011;50936;51.660;5.616;2022-10-12T18:02:50;17.77;;;7.78;;
64543;SDS011;50936;51.660;5.616;2022-10-12T18:05:17;19.50;;;8.90;;
64543;SDS011;50936;51.660;5.616;2022-10-12T18:07:44;22.52;;;7.88;;
64543;SDS011;50936;51.660;5.616;2022-10-12T18:10:11;20.08;;;7.20;;
64543;SDS011;50936;51.660;5.616;2022-10-12T18:12:38;16.48;;;7.85;;
64543;SDS011;50936;51.660;5.616;2022-10-12T18:15:05;18.95;;;7.57;;
64543;SDS011;50936;51.660;5.616;2022-10-12T18:17:33;16.77;;;6.93;;
64543;SDS011;50936;51.660;5.616;2022-10-12T18:20:00;18.35;;;7.20;;
64543;SDS011;50936;51.660;5.616;2022-10-12T18:22:29;14.20;;;6.97;;
64543;SDS011;50936;51.660;5.616;2022-10-12T18:24:56;16.00;;;6.97;;
64543;SDS011;50936;51.660;5.616;2022-10-12T18:27:23;15.32;;;7.05;;
64543;SDS011;50936;51.660;5.616;2022-10-12T18:29:50;16.15;;;6.93;;
64543;SDS011;50936;51.660;5.616;2022-10-12T18:32:16;18.55;;;7.72;;
64543;SDS011;50936;51.660;5.616;2022-10-12T18:34:44;16.10;;;7.00;;
64543;SDS011;50936;51.660;5.616;2022-10-12T18:37:11;17.23;;;6.80;;
64543;SDS011;50936;51.660;5.616;2022-10-12T18:39:38;17.45;;;7.10;;
64543;SDS011;50936;51.660;5.616;2022-10-12T18:42:07;14.07;;;6.30;;
64543;SDS011;50936;51.660;5.616;2022-10-12T18:44:34;16.25;;;7.57;;
64543;SDS011;50936;51.660;5.616;2022-10-12T18:47:02;15.98;;;7.47;;
64543;SDS011;50936;51.660;5.616;2022-10-12T18:49:30;18.80;;;8.00;;
64543;SDS011;50936;51.660;5.616;2022-10-12T18:51:57;16.27;;;7.28;;
64543;SDS011;50936;51.660;5.616;2022-10-12T18:54:24;19.58;;;8.20;;
64543;SDS011;50936;51.660;5.616;2022-10-12T18:56:51;19.77;;;7.40;;
64543;SDS011;50936;51.660;5.616;2022-10-12T18:59:21;16.30;;;7.38;;
64543;SDS011;50936;51.660;5.616;2022-10-12T19:01:48;17.45;;;7.47;;
64543;SDS011;50936;51.660;5.616;2022-10-12T19:04:17;17.15;;;7.88;;
64543;SDS011;50936;51.660;5.616;2022-10-12T19:06:44;14.65;;;7.80;;
64543;SDS011;50936;51.660;5.616;2022-10-12T19:09:14;20.10;;;8.13;;
64543;SDS011;50936;51.660;5.616;2022-10-12T19:11:41;22.70;;;8.07;;
64543;SDS011;50936;51.660;5.616;2022-10-12T19:14:10;19.20;;;8.15;;
64543;SDS011;50936;51.660;5.616;2022-10-12T19:16:41;23.13;;;8.25;;
64543;SDS011;50936;51.660;5.616;2022-10-12T19:19:11;18.85;;;8.30;;
64543;SDS011;50936;51.660;5.616;2022-10-12T19:21:48;19.23;;;8.27;;
64543;SDS011;50936;51.660;5.616;2022-10-12T19:24:18;17.90;;;8.10;;
64543;SDS011;50936;51.660;5.616;2022-10-12T19:26:51;21.42;;;8.18;;
64543;SDS011;50936;51.660;5.616;2022-10-12T19:29:19;16.08;;;7.80;;
64543;SDS011;50936;51.660;5.616;2022-10-12T19:31:47;17.98;;;7.22;;
64543;SDS011;50936;51.660;5.616;2022-10-12T19:34:16;16.77;;;7.90;;
64543;SDS011;50936;51.660;5.616;2022-10-12T19:36:48;18.48;;;8.35;;
64543;SDS011;50936;51.660;5.616;2022-10-12T19:39:17;18.45;;;8.18;;
64543;SDS011;50936;51.660;5.616;2022-10-12T19:41:49;15.30;;;7.85;;
64543;SDS011;50936;51.660;5.616;2022-10-12T19:44:18;17.95;;;8.23;;
64543;SDS011;50936;51.660;5.616;2022-10-12T19:46:53;20.77;;;8.23;;